createdAt,value
2023-04-28T00:03:50.039Z,12.42
2023-04-28T00:09:16.468Z,12.82
2023-04-28T00:14:41.309Z,12.34
2023-04-28T00:20:06.655Z,10.45
2023-04-28T00:25:30.570Z,9.09
2023-04-28T00:30:54.446Z,8.15
2023-04-28T00:36:18.450Z,7.41
2023-04-28T00:41:43.264Z,6.91
2023-04-28T00:47:12.119Z,6.55
2023-04-28T00:52:37.270Z,6.28
2023-04-28T00:58:02.760Z,6.11
2023-04-28T01:03:27.398Z,6.00
2023-04-28T01:08:51.479Z,5.92
2023-04-28T01:14:17.843Z,5.85
2023-04-28T01:19:43.796Z,5.72
2023-04-28T01:25:08.618Z,6.76
2023-04-28T01:30:33.308Z,9.51
2023-04-28T01:36:01.313Z,11.02
2023-04-28T01:41:25.474Z,11.95
2023-04-28T01:46:50.604Z,12.52
2023-04-28T01:52:15.780Z,12.83
2023-04-28T01:57:40.147Z,12.27
2023-04-28T02:03:04.794Z,10.29
2023-04-28T02:08:32.535Z,8.85
2023-04-28T02:13:56.822Z,7.83
2023-04-28T02:19:21.971Z,7.04
2023-04-28T02:24:46.365Z,6.48
2023-04-28T02:30:11.262Z,6.07
2023-04-28T02:35:35.412Z,5.76
2023-04-28T02:41:05.404Z,5.53
2023-04-28T02:46:29.511Z,5.35
2023-04-28T02:51:56.569Z,5.20
2023-04-28T02:57:21.626Z,5.08
2023-04-28T03:02:45.908Z,5.02
2023-04-28T03:08:10.465Z,6.02
2023-04-28T03:13:36.273Z,8.82
2023-04-28T03:19:00.637Z,10.43
2023-04-28T03:24:25.714Z,11.36
2023-04-28T03:29:52.367Z,11.89
2023-04-28T03:35:18.796Z,12.30
2023-04-28T03:40:43.441Z,11.77
2023-04-28T03:46:43.699Z,9.65
2023-04-28T03:52:08.324Z,8.32
2023-04-28T03:57:34.328Z,7.33
2023-04-28T04:02:59.282Z,6.51
2023-04-28T04:08:23.713Z,5.88
2023-04-28T04:13:48.263Z,5.49
2023-04-28T04:19:13.377Z,5.26
2023-04-28T04:24:39.066Z,5.11
2023-04-28T04:30:04.535Z,5.04
2023-04-28T04:35:29.817Z,6.02
2023-04-28T04:40:54.431Z,8.83
2023-04-28T04:46:19.536Z,10.32
2023-04-28T04:51:44.326Z,11.29
2023-04-28T04:57:10.034Z,11.97
2023-04-28T05:02:58.019Z,12.47
2023-04-28T05:08:31.004Z,12.02
2023-04-28T05:14:10.054Z,10.04
2023-04-28T05:19:36.765Z,8.80
2023-04-28T05:25:01.908Z,7.95
2023-04-28T05:30:26.886Z,7.43
2023-04-28T05:35:52.330Z,7.05
2023-04-28T05:41:17.371Z,6.82
2023-04-28T05:46:41.853Z,6.75
2023-04-28T05:52:06.307Z,6.77
2023-04-28T05:57:32.039Z,7.90
2023-04-28T06:03:01.562Z,10.66
2023-04-28T06:08:27.081Z,11.93
2023-04-28T06:13:51.968Z,12.92
2023-04-28T06:19:19.208Z,13.44
2023-04-28T06:24:44.380Z,13.11
2023-04-28T06:30:19.248Z,11.52
2023-04-28T06:35:44.431Z,10.46
2023-04-28T06:41:09.383Z,9.86
2023-04-28T06:46:34.309Z,9.46
2023-04-28T06:51:58.256Z,9.27
2023-04-28T06:57:22.971Z,9.24
2023-04-28T07:02:47.299Z,9.28
2023-04-28T07:08:11.285Z,9.30
2023-04-28T07:13:36.274Z,9.36
2023-04-28T07:19:00.996Z,9.47
2023-04-28T07:24:25.889Z,9.62
2023-04-28T07:29:50.317Z,10.73
2023-04-28T07:36:28.961Z,13.25
2023-04-28T07:42:31.709Z,14.82
2023-04-28T07:47:56.824Z,14.79
2023-04-28T07:53:21.953Z,13.33
2023-04-28T07:58:46.278Z,12.52
2023-04-28T08:04:11.612Z,12.15
2023-04-28T08:09:36.457Z,11.93
2023-04-28T08:15:00.381Z,11.88
2023-04-28T08:20:25.575Z,11.91
2023-04-28T08:25:50.820Z,12.00
2023-04-28T08:31:15.245Z,12.20
2023-04-28T08:36:39.677Z,12.46
2023-04-28T08:42:07.978Z,12.71
2023-04-28T08:47:36.627Z,13.02
2023-04-28T08:53:05.130Z,13.35
2023-04-28T08:58:29.977Z,13.60
2023-04-28T09:03:55.447Z,13.86
2023-04-28T09:09:47.932Z,14.08
2023-04-28T09:15:37.834Z,14.29
2023-04-28T09:21:13.404Z,14.45
2023-04-28T09:26:55.476Z,14.59
2023-04-28T09:32:22.562Z,14.88
2023-04-28T09:37:47.673Z,15.03
2023-04-28T09:43:34.122Z,15.19
2023-04-28T09:49:02.833Z,15.45
2023-04-28T09:54:30.506Z,15.64
2023-04-28T09:59:54.986Z,15.86
2023-04-28T10:05:22.225Z,16.11
2023-04-28T10:10:54.984Z,16.23
2023-04-28T10:16:20.594Z,16.31
2023-04-28T10:21:53.109Z,16.48
2023-04-28T10:27:18.537Z,16.68
2023-04-28T10:32:44.267Z,16.99
2023-04-28T10:38:20.795Z,17.30
2023-04-28T10:43:51.865Z,17.55
2023-04-28T10:49:17.462Z,17.83
2023-04-28T10:55:19.335Z,17.88
2023-04-28T11:00:57.212Z,18.11
2023-04-28T11:06:38.858Z,18.21
2023-04-28T11:12:11.533Z,18.49
2023-04-28T11:17:42.827Z,18.71
2023-04-28T11:23:12.232Z,18.86
2023-04-28T11:28:52.798Z,19.19
2023-04-28T11:34:25.216Z,19.44
2023-04-28T11:39:52.199Z,19.44
2023-04-28T11:45:17.216Z,19.44
2023-04-28T11:50:41.763Z,19.68
2023-04-28T11:56:09.986Z,19.73
2023-04-28T12:01:37.743Z,19.61
2023-04-28T12:07:12.974Z,19.53
2023-04-28T12:12:49.983Z,19.62
2023-04-28T12:18:19.883Z,19.89
2023-04-28T12:23:44.278Z,19.87
2023-04-28T12:29:08.201Z,19.88
2023-04-28T12:34:33.606Z,19.96
2023-04-28T12:39:58.255Z,20.10
2023-04-28T12:45:24.679Z,20.29
2023-04-28T12:50:49.582Z,20.45
2023-04-28T12:56:13.870Z,20.51
2023-04-28T13:01:38.522Z,20.49
2023-04-28T13:07:03.951Z,20.46
2023-04-28T13:12:28.324Z,20.28
2023-04-28T13:17:53.491Z,20.11
2023-04-28T13:23:18.189Z,20.02
2023-04-28T13:28:42.640Z,19.86
2023-04-28T13:34:06.570Z,19.73
2023-04-28T13:39:31.384Z,19.59
2023-04-28T13:44:55.483Z,19.37
2023-04-28T13:50:21.225Z,19.15
2023-04-28T13:55:46.736Z,18.87
2023-04-28T14:01:12.438Z,18.56
2023-04-28T14:06:37.602Z,18.35
2023-04-28T14:12:02.529Z,18.18
2023-04-28T14:17:28.795Z,18.08
2023-04-28T14:22:53.880Z,17.99
2023-04-28T14:28:18.352Z,17.93
2023-04-28T14:33:43.076Z,17.83
2023-04-28T14:39:06.892Z,17.68
2023-04-28T14:44:31.263Z,17.59
2023-04-28T14:49:55.519Z,17.51
2023-04-28T14:55:21.631Z,17.39
2023-04-28T15:00:46.331Z,17.20
2023-04-28T15:06:11.939Z,16.98
2023-04-28T15:11:36.389Z,16.75
2023-04-28T15:17:00.545Z,16.53
2023-04-28T15:22:25.291Z,16.36
2023-04-28T15:27:50.950Z,16.22
2023-04-28T15:33:18.097Z,16.15
2023-04-28T15:38:42.997Z,16.20
2023-04-28T15:44:07.719Z,16.24
2023-04-28T15:49:32.299Z,16.29
2023-04-28T15:54:56.822Z,16.30
2023-04-28T16:00:22.449Z,16.27
2023-04-28T16:05:47.605Z,16.25
2023-04-28T16:11:19.704Z,16.21
2023-04-28T16:16:44.900Z,16.20
2023-04-28T16:22:09.656Z,16.17
2023-04-28T16:27:35.648Z,16.12
2023-04-28T16:33:00.468Z,16.04
2023-04-28T16:38:25.479Z,15.91
2023-04-28T16:43:52.056Z,15.76
2023-04-28T16:49:18.618Z,15.60
2023-04-28T16:54:49.476Z,15.46
2023-04-28T17:00:22.481Z,15.32
2023-04-28T17:05:53.448Z,15.21
2023-04-28T17:11:22.345Z,15.11
2023-04-28T17:16:51.439Z,15.08
2023-04-28T17:22:21.620Z,15.04
2023-04-28T17:27:48.658Z,15.04
2023-04-28T17:33:14.809Z,15.01
2023-04-28T17:38:50.641Z,14.97
2023-04-28T17:44:22.043Z,14.89
2023-04-28T17:49:48.770Z,14.82
2023-04-28T17:55:24.398Z,14.70
2023-04-28T18:00:57.820Z,14.58
2023-04-28T18:06:29.608Z,14.48
2023-04-28T18:12:00.552Z,14.37
2023-04-28T18:17:29.500Z,14.26
2023-04-28T18:22:53.744Z,14.14
2023-04-28T18:28:18.331Z,13.99
2023-04-28T18:33:42.292Z,13.86
2023-04-28T18:39:07.044Z,13.77
2023-04-28T18:44:34.761Z,13.71
2023-04-28T18:50:00.409Z,13.67
2023-04-28T18:55:25.091Z,13.61
2023-04-28T19:00:49.500Z,13.55
2023-04-28T19:06:14.904Z,13.45
2023-04-28T19:11:38.903Z,13.30
2023-04-28T19:17:03.930Z,13.17
2023-04-28T19:22:40.772Z,13.06
2023-04-28T19:28:05.221Z,13.00
2023-04-28T19:33:30.043Z,12.97
2023-04-28T19:38:54.332Z,12.95
2023-04-28T19:44:20.615Z,12.95
2023-04-28T19:49:46.771Z,12.93
2023-04-28T19:55:13.718Z,12.92
2023-04-28T20:00:38.828Z,12.90
2023-04-28T20:06:02.953Z,12.90
2023-04-28T20:11:28.925Z,12.90
2023-04-28T20:16:54.558Z,12.88
2023-04-28T20:23:07.324Z,12.87
2023-04-28T20:29:00.130Z,12.86
2023-04-28T20:34:25.155Z,12.82
2023-04-28T20:39:51.217Z,12.77
2023-04-28T20:45:17.608Z,12.71
2023-04-28T20:50:43.596Z,12.67
2023-04-28T20:56:10.028Z,12.62
2023-04-28T21:01:35.881Z,12.57
2023-04-28T21:07:00.630Z,12.49
2023-04-28T21:12:24.642Z,12.36
2023-04-28T21:17:49.818Z,12.21
2023-04-28T21:23:14.366Z,12.04
2023-04-28T21:28:40.503Z,11.92
2023-04-28T21:34:05.332Z,11.86
2023-04-28T21:39:29.831Z,11.86
2023-04-28T21:44:54.292Z,11.88
2023-04-28T21:50:18.720Z,11.88
2023-04-28T21:55:45.153Z,12.84
2023-04-28T22:01:10.467Z,15.27
2023-04-28T22:06:36.246Z,16.54
2023-04-28T22:12:00.253Z,17.29
2023-04-28T22:17:24.178Z,17.23
2023-04-28T22:22:48.550Z,15.78
2023-04-28T22:28:12.676Z,14.71
2023-04-28T22:33:39.146Z,13.96
2023-04-28T22:39:05.311Z,13.37
2023-04-28T22:44:30.433Z,12.94
2023-04-28T22:49:55.952Z,12.62
2023-04-28T22:55:20.881Z,12.39
2023-04-28T23:00:45.353Z,12.20
2023-04-28T23:06:10.887Z,12.02
2023-04-28T23:11:36.044Z,11.86
2023-04-28T23:17:00.276Z,12.57
2023-04-28T23:22:24.836Z,14.77
2023-04-28T23:27:49.524Z,15.97
2023-04-28T23:33:13.559Z,16.66
2023-04-28T23:38:38.435Z,17.14
2023-04-28T23:44:03.239Z,16.80
2023-04-28T23:49:27.163Z,15.28
2023-04-28T23:54:51.717Z,14.15
